Time;durP1;ratioP1;P1;durP2;ratioP2;P2;SDS_P1;SDS_P2;PMS_P1;PMS_P2;Temp;Humidity;BMP_temperature;BMP_pressure;BME280_temperature;BME280_humidity;BME280_pressure;Samples;Min_cycle;Max_cycle;Signal;HPM_P1;HPM_P2
2024/02/03 00:01:58;;;;;;;6.80;2.80;;;;;;;1.35;61.94;94707.25;5025563;28;20055;-78
2024/02/03 00:04:24;;;;;;;5.47;3.00;;;;;;;1.32;61.93;94699.84;5024380;28;20029;-78
2024/02/03 00:06:49;;;;;;;6.65;2.50;;;;;;;1.37;61.88;94704.38;5025638;28;20025;-79
2024/02/03 00:09:15;;;;;;;5.97;2.63;;;;;;;1.36;61.68;94708.84;5025376;28;20029;-79
2024/02/03 00:11:40;;;;;;;6.93;2.45;;;;;;;1.37;61.83;94699.91;5024528;28;20025;-79
2024/02/03 00:14:06;;;;;;;12.82;2.83;;;;;;;1.28;61.98;94696.06;5025473;28;20097;-79
2024/02/03 00:16:31;;;;;;;9.15;3.28;;;;;;;1.34;62.10;94692.53;5025682;28;20025;-79
2024/02/03 00:18:57;;;;;;;6.60;2.47;;;;;;;1.25;62.29;94701.00;5025168;28;20033;-79
2024/02/03 00:21:23;;;;;;;7.50;2.30;;;;;;;1.30;62.15;94701.09;5025208;28;20076;-79
2024/02/03 00:23:49;;;;;;;6.55;2.40;;;;;;;1.32;62.91;94697.22;5023932;28;20034;-79
2024/02/03 00:26:14;;;;;;;11.52;3.10;;;;;;;1.31;62.42;94700.06;5025112;28;20033;-79
2024/02/03 00:28:40;;;;;;;7.15;2.75;;;;;;;1.31;62.38;94702.69;5025437;28;20040;-78
2024/02/03 00:31:05;;;;;;;11.68;3.33;;;;;;;1.29;62.76;94695.03;5025000;28;20044;-79
2024/02/03 00:33:31;;;;;;;7.82;2.60;;;;;;;1.29;62.66;94704.75;5025060;28;20328;-78
2024/02/03 00:35:56;;;;;;;8.85;2.97;;;;;;;1.27;62.73;94698.94;5024910;28;20049;-77
2024/02/03 00:38:22;;;;;;;7.82;2.95;;;;;;;1.29;62.76;94696.88;5025089;28;20025;-78
2024/02/03 00:40:48;;;;;;;7.30;3.42;;;;;;;1.32;62.50;94696.38;5024961;28;20025;-77
2024/02/03 00:43:16;;;;;;;9.95;3.05;;;;;;;1.28;62.68;94690.81;5024644;28;20198;-77
2024/02/03 00:45:42;;;;;;;6.63;2.17;;;;;;;1.25;62.76;94696.53;5024881;28;20048;-77
2024/02/03 00:48:07;;;;;;;6.13;2.17;;;;;;;1.23;62.86;94692.56;5024570;28;20320;-77
2024/02/03 00:50:33;;;;;;;7.45;2.58;;;;;;;1.21;62.69;94695.41;5024679;28;20021;-76
2024/02/03 00:52:58;;;;;;;3.92;1.95;;;;;;;1.22;62.46;94683.06;5024581;28;20040;-76
2024/02/03 00:55:24;;;;;;;7.15;2.15;;;;;;;1.18;62.32;94680.94;5024422;28;20219;-76
2024/02/03 00:57:49;;;;;;;8.52;2.55;;;;;;;1.21;62.05;94674.41;5024317;28;20018;-76
2024/02/03 01:00:16;;;;;;;5.38;1.38;;;;;;;1.14;60.77;94673.72;5024477;28;20067;-76
2024/02/03 01:02:42;;;;;;;4.80;2.30;;;;;;;1.13;60.49;94674.78;5024506;28;20391;-76
2024/02/03 01:05:08;;;;;;;4.55;1.58;;;;;;;1.15;60.12;94668.25;5024487;28;20038;-76
2024/02/03 01:07:33;;;;;;;5.18;1.95;;;;;;;1.16;60.04;94666.41;5024180;28;20021;-76
2024/02/03 01:09:59;;;;;;;4.55;2.03;;;;;;;1.21;60.12;94661.28;5024201;28;20362;-76
2024/02/03 01:12:24;;;;;;;4.00;1.50;;;;;;;1.24;60.20;94667.88;5024352;28;20080;-76
2024/02/03 01:14:50;;;;;;;4.90;2.15;;;;;;;1.26;60.46;94669.22;5024207;28;20018;-76
2024/02/03 01:17:15;;;;;;;7.47;1.67;;;;;;;1.25;59.96;94669.50;5024271;28;20026;-77
2024/02/03 01:19:41;;;;;;;9.77;1.88;;;;;;;1.28;59.95;94676.88;5024064;28;20335;-76
2024/02/03 01:22:07;;;;;;;3.53;1.77;;;;;;;1.25;59.98;94669.50;5024089;28;20056;-76
2024/02/03 01:24:32;;;;;;;3.92;1.42;;;;;;;1.17;59.90;94666.19;5024154;28;20244;-77
2024/02/03 01:26:58;;;;;;;3.53;1.77;;;;;;;1.27;60.37;94652.44;5023903;28;20152;-76
2024/02/03 01:29:23;;;;;;;7.88;2.10;;;;;;;1.27;60.54;94649.81;5024219;28;20032;-77
2024/02/03 01:31:48;;;;;;;5.93;1.80;;;;;;;1.32;60.46;94655.19;5023845;28;20022;-77
2024/02/03 01:34:14;;;;;;;12.68;2.88;;;;;;;1.32;60.62;94657.81;5023769;28;20267;-77
2024/02/03 01:36:39;;;;;;;5.97;2.50;;;;;;;1.32;60.27;94643.88;5024006;28;20032;-77
2024/02/03 01:39:06;;;;;;;7.60;2.60;;;;;;;1.37;60.42;94649.22;5023734;28;20211;-78
2024/02/03 01:41:32;;;;;;;6.38;2.22;;;;;;;1.30;60.64;94641.47;5023698;28;20021;-77
2024/02/03 01:43:57;;;;;;;7.53;2.50;;;;;;;1.35;60.31;94654.69;5023618;28;20022;-77
2024/02/03 01:46:23;;;;;;;4.88;2.42;;;;;;;1.32;60.09;94652.56;5023607;28;20021;-77
2024/02/03 01:48:49;;;;;;;8.00;2.35;;;;;;;1.40;60.26;94649.56;5023375;28;20100;-76
2024/02/03 01:51:18;;;;;;;6.85;2.40;;;;;;;1.38;60.14;94637.66;5023403;28;20025;-76
2024/02/03 01:53:46;;;;;;;7.35;2.47;;;;;;;1.39;60.42;94628.78;5023390;28;20024;-76
2024/02/03 01:56:14;;;;;;;5.75;2.53;;;;;;;1.40;59.27;94625.91;5023599;28;20025;-76
2024/02/03 01:58:39;;;;;;;5.38;2.30;;;;;;;1.43;59.45;94629.88;5023609;28;20032;-76
2024/02/03 02:01:05;;;;;;;7.45;2.63;;;;;;;1.39;59.89;94629.56;5023240;28;20240;-76
2024/02/03 02:03:31;;;;;;;8.95;3.47;;;;;;;1.39;58.64;94620.88;5023253;28;20068;-76
2024/02/03 02:05:57;;;;;;;11.68;3.10;;;;;;;1.38;59.02;94617.47;5023223;28;20025;-78
2024/02/03 02:08:35;;;;;;;6.57;2.50;;;;;;;1.40;59.07;94614.59;5023200;28;20029;-78
2024/02/03 02:11:02;;;;;;;5.88;2.28;;;;;;;1.30;59.12;94606.53;5023331;28;20021;-78
2024/02/03 02:13:28;;;;;;;10.13;3.15;;;;;;;1.31;59.57;94616.81;5023262;28;20029;-78
2024/02/03 02:15:54;;;;;;;6.88;2.70;;;;;;;1.19;59.67;94621.31;5023167;28;20257;-78
2024/02/03 02:18:19;;;;;;;7.50;3.35;;;;;;;1.17;59.63;94613.66;5023102;28;20060;-78
2024/02/03 02:20:45;;;;;;;5.97;2.47;;;;;;;1.13;59.42;94609.13;5023264;28;20040;-78
2024/02/03 02:23:11;;;;;;;7.65;2.25;;;;;;;1.03;59.67;94603.69;5023057;28;20339;-77
2024/02/03 02:25:36;;;;;;;7.50;3.25;;;;;;;1.09;60.18;94608.81;5023196;28;20067;-77
2024/02/03 02:28:02;;;;;;;5.10;2.47;;;;;;;1.09;59.97;94603.53;5022805;28;20178;-77
2024/02/03 02:30:27;;;;;;;6.47;3.05;;;;;;;1.15;60.23;94609.69;5023391;28;20208;-76
2024/02/03 02:32:53;;;;;;;12.77;3.10;;;;;;;1.07;60.39;94617.94;5023023;28;20014;-77
2024/02/03 02:35:18;;;;;;;11.60;3.35;;;;;;;1.08;60.61;94614.28;5023093;28;20210;-77
2024/02/03 02:37:44;;;;;;;12.57;3.60;;;;;;;1.03;61.19;94603.69;5023002;28;20060;-77
2024/02/03 02:40:11;;;;;;;7.78;2.80;;;;;;;1.04;60.63;94606.09;5023501;28;20092;-77
2024/02/03 02:42:37;;;;;;;6.15;2.47;;;;;;;1.05;60.70;94612.13;5022761;28;20022;-77
2024/02/03 02:45:02;;;;;;;10.50;2.63;;;;;;;1.08;60.65;94616.91;5022852;28;20037;-77
2024/02/03 02:47:28;;;;;;;4.13;2.80;;;;;;;1.13;59.71;94609.13;5025230;28;20032;-77
2024/02/03 02:49:53;;;;;;;4.57;2.47;;;;;;;1.13;59.13;94604.66;5026955;28;20014;-77
2024/02/03 02:52:19;;;;;;;6.78;2.83;;;;;;;1.20;58.36;94601.88;5026623;28;20099;-77
2024/02/03 02:54:44;;;;;;;12.57;2.80;;;;;;;1.15;58.50;94601.81;5026894;28;20029;-77
2024/02/03 02:57:09;;;;;;;9.48;2.00;;;;;;;1.17;58.42;94584.78;5026931;28;20030;-77
2024/02/03 02:59:35;;;;;;;5.03;2.45;;;;;;;1.23;57.97;94585.69;5026717;28;20033;-77
2024/02/03 03:02:01;;;;;;;7.25;2.88;;;;;;;1.26;57.91;94587.81;5026574;28;20029;-77
2024/02/03 03:04:27;;;;;;;5.22;2.83;;;;;;;1.32;57.93;94586.06;5026539;28;20030;-78
2024/02/03 03:06:52;;;;;;;9.13;2.90;;;;;;;1.30;58.05;94578.44;5026568;28;20308;-77
2024/02/03 03:09:17;;;;;;;6.38;2.47;;;;;;;1.32;58.00;94573.75;5026684;28;20022;-78
2024/02/03 03:11:44;;;;;;;9.68;2.55;;;;;;;1.32;58.60;94570.31;5026681;28;20390;-77
2024/02/03 03:14:09;;;;;;;6.03;2.88;;;;;;;1.36;58.79;94577.50;5026652;28;20025;-77
2024/02/03 03:16:35;;;;;;;7.95;3.08;;;;;;;1.34;58.66;94579.56;5026557;28;20231;-77
2024/02/03 03:19:01;;;;;;;8.00;2.75;;;;;;;1.31;59.11;94587.91;5026263;28;20248;-77
2024/02/03 03:21:26;;;;;;;9.63;2.75;;;;;;;1.32;59.20;94568.50;5026512;28;20025;-77
2024/02/03 03:23:51;;;;;;;7.85;3.13;;;;;;;1.24;58.96;94565.47;5026331;28;20036;-77
2024/02/03 03:26:17;;;;;;;12.73;2.60;;;;;;;1.18;59.20;94565.38;5026356;28;20022;-77
2024/02/03 03:28:42;;;;;;;7.80;2.92;;;;;;;1.27;58.97;94560.53;5026178;28;20219;-76
2024/02/03 03:31:08;;;;;;;5.93;2.40;;;;;;;1.25;58.70;94562.59;5026581;28;20072;-77
2024/02/03 03:33:33;;;;;;;4.65;2.28;;;;;;;1.20;58.67;94578.25;5026194;28;20050;-78
2024/02/03 03:35:58;;;;;;;4.82;2.75;;;;;;;1.26;58.63;94569.44;5026267;28;20295;-78
2024/02/03 03:38:24;;;;;;;10.57;2.83;;;;;;;1.24;58.61;94576.75;5026383;28;20025;-78
2024/02/03 03:40:49;;;;;;;9.50;2.47;;;;;;;1.32;58.43;94565.06;5025964;28;20021;-78
2024/02/03 03:43:15;;;;;;;6.45;2.90;;;;;;;1.25;58.22;94561.81;5025935;28;20032;-78
2024/02/03 03:45:40;;;;;;;8.60;2.55;;;;;;;1.31;58.53;94569.53;5026194;28;20024;-78
2024/02/03 03:48:06;;;;;;;10.05;3.17;;;;;;;1.27;58.41;94559.75;5025863;28;20037;-77
2024/02/03 03:50:32;;;;;;;5.40;2.80;;;;;;;1.25;58.35;94562.59;5025660;28;20024;-77
2024/02/03 03:52:57;;;;;;;9.93;3.55;;;;;;;1.38;58.16;94564.13;5025785;28;20343;-77
2024/02/03 03:55:23;;;;;;;7.68;2.65;;;;;;;1.35;58.26;94560.13;5025811;28;20324;-77
2024/02/03 03:57:48;;;;;;;11.43;2.60;;;;;;;1.46;58.22;94563.72;5025530;28;20064;-77
2024/02/03 04:00:14;;;;;;;10.98;2.72;;;;;;;1.50;58.01;94561.41;5025694;28;20068;-77
2024/02/03 04:02:40;;;;;;;9.90;2.58;;;;;;;1.51;58.05;94550.69;5025649;28;20201;-77
2024/02/03 04:05:06;;;;;;;11.65;3.45;;;;;;;1.57;58.06;94556.81;5025659;28;20026;-77
2024/02/03 04:07:32;;;;;;;7.60;2.72;;;;;;;1.50;58.27;94554.31;5024437;28;20029;-76
2024/02/03 04:09:57;;;;;;;7.97;2.30;;;;;;;1.42;58.85;94570.47;5024357;28;20032;-77
2024/02/03 04:12:23;;;;;;;4.90;2.58;;;;;;;1.39;58.88;94563.88;5025487;28;20018;-76
2024/02/03 04:14:48;;;;;;;7.80;3.40;;;;;;;1.34;58.95;94542.81;5025469;28;20044;-76
2024/02/03 04:17:15;;;;;;;15.95;3.28;;;;;;;1.31;58.95;94551.16;5025523;28;20017;-77
2024/02/03 04:19:40;;;;;;;7.68;3.33;;;;;;;1.32;59.48;94544.06;5025458;28;20041;-77
2024/02/03 04:22:07;;;;;;;9.35;3.30;;;;;;;1.29;59.26;94545.34;5025342;28;20061;-76
2024/02/03 04:24:33;;;;;;;8.25;2.88;;;;;;;1.21;59.71;94569.34;5024977;28;20025;-76
2024/02/03 04:26:59;;;;;;;8.85;3.50;;;;;;;1.17;59.93;94541.97;5025272;28;20089;-76
2024/02/03 04:29:24;;;;;;;7.00;3.15;;;;;;;1.13;60.19;94557.41;5025324;28;20033;-76
2024/02/03 04:31:50;;;;;;;5.70;2.40;;;;;;;1.06;60.25;94530.53;5025025;28;20113;-77
2024/02/03 04:34:18;;;;;;;6.22;4.13;;;;;;;1.09;60.14;94539.75;5025182;28;20093;-77
2024/02/03 04:36:44;;;;;;;5.93;3.03;;;;;;;1.00;60.71;94548.00;5024845;28;20017;-77
2024/02/03 04:39:10;;;;;;;5.60;3.20;;;;;;;1.00;61.24;94542.75;5025201;28;20018;-77
2024/02/03 04:41:35;;;;;;;6.82;3.25;;;;;;;1.03;61.45;94545.94;5023698;28;20259;-77
2024/02/03 04:44:00;;;;;;;10.73;3.20;;;;;;;0.96;61.63;94546.09;5024849;28;20304;-77
2024/02/03 04:46:26;;;;;;;11.60;3.70;;;;;;;0.99;61.65;94551.66;5024903;28;20296;-77
2024/02/03 04:48:52;;;;;;;7.38;3.15;;;;;;;0.98;61.71;94544.81;5024713;28;20026;-77
2024/02/03 04:51:17;;;;;;;5.97;3.20;;;;;;;0.90;61.81;94537.31;5024591;28;20022;-77
2024/02/03 04:53:43;;;;;;;7.22;3.50;;;;;;;0.91;61.93;94553.88;5024484;28;20024;-77
2024/02/03 04:56:09;;;;;;;7.68;3.08;;;;;;;0.89;61.88;94551.47;5024704;28;20030;-77
2024/02/03 04:58:34;;;;;;;8.38;2.67;;;;;;;0.83;61.89;94573.41;5024662;28;20037;-78
2024/02/03 05:01:01;;;;;;;6.72;2.85;;;;;;;0.82;61.59;94542.97;5024605;28;20316;-78
2024/02/03 05:03:26;;;;;;;10.82;3.60;;;;;;;0.92;61.65;94561.50;5024467;28;20026;-77
2024/02/03 05:05:52;;;;;;;5.13;2.88;;;;;;;0.88;61.51;94570.88;5024469;28;20048;-78
2024/02/03 05:08:18;;;;;;;5.90;3.00;;;;;;;0.93;61.38;94570.19;5024373;28;20022;-78
2024/02/03 05:10:44;;;;;;;10.05;3.08;;;;;;;0.81;61.47;94570.22;5023716;28;20022;-78
2024/02/03 05:13:09;;;;;;;7.05;2.78;;;;;;;0.88;61.39;94586.63;5024446;28;20100;-76
2024/02/03 05:15:35;;;;;;;10.02;2.72;;;;;;;0.85;61.59;94587.09;5024317;28;20037;-77
2024/02/03 05:18:01;;;;;;;11.65;3.33;;;;;;;0.85;61.27;94588.94;5024324;28;20025;-77
2024/02/03 05:20:26;;;;;;;3.85;2.13;;;;;;;0.89;61.09;94590.84;5024263;28;20113;-77
2024/02/03 05:22:52;;;;;;;11.27;2.35;;;;;;;0.92;61.10;94590.38;5023892;28;20022;-74
2024/02/03 05:25:17;;;;;;;9.02;2.47;;;;;;;0.92;61.12;94585.13;5024062;28;20022;-77
2024/02/03 05:27:43;;;;;;;10.20;2.42;;;;;;;0.94;61.34;94569.16;5023888;28;20316;-77
2024/02/03 05:30:09;;;;;;;18.10;3.58;;;;;;;0.91;61.02;94580.91;5024142;28;20097;-78
2024/02/03 05:32:34;;;;;;;6.10;2.83;;;;;;;0.93;60.99;94589.34;5023921;28;20037;-79
2024/02/03 05:35:00;;;;;;;4.25;2.20;;;;;;;0.93;60.96;94584.09;5023772;28;20096;-77
2024/02/03 05:37:25;;;;;;;10.18;2.63;;;;;;;0.89;61.26;94582.19;5023814;28;20302;-77
2024/02/03 05:39:51;;;;;;;9.50;2.58;;;;;;;0.84;61.13;94556.63;5023791;28;20378;-79
2024/02/03 05:42:16;;;;;;;8.82;2.85;;;;;;;0.93;60.57;94563.09;5023798;28;20110;-78
2024/02/03 05:44:42;;;;;;;5.50;2.53;;;;;;;1.02;60.79;94567.97;5022858;28;20105;-79
2024/02/03 05:47:07;;;;;;;6.72;2.38;;;;;;;1.02;60.77;94567.97;5024060;28;20312;-79
2024/02/03 05:49:32;;;;;;;6.18;2.28;;;;;;;1.09;60.56;94566.00;5023462;28;20022;-78
2024/02/03 05:51:58;;;;;;;10.77;3.15;;;;;;;1.08;60.32;94553.88;5023621;28;20359;-78
2024/02/03 05:54:23;;;;;;;5.18;2.15;;;;;;;1.03;60.35;94544.09;5023502;28;20033;-78
2024/02/03 05:56:49;;;;;;;7.40;3.30;;;;;;;1.09;60.57;94537.13;5023853;28;20096;-78
2024/02/03 05:59:14;;;;;;;9.32;2.50;;;;;;;1.09;60.38;94531.88;5023528;28;20190;-79
2024/02/03 06:01:39;;;;;;;8.27;2.80;;;;;;;1.06;60.55;94530.53;5023631;28;20055;-78
2024/02/03 06:04:07;;;;;;;7.00;2.85;;;;;;;1.13;60.01;94541.66;5023286;28;20113;-79
2024/02/03 06:06:36;;;;;;;10.20;2.75;;;;;;;1.14;59.80;94542.44;5022190;28;20036;-79
2024/02/03 06:09:03;;;;;;;5.72;2.40;;;;;;;1.13;60.03;94552.16;5022250;28;20029;-79
2024/02/03 06:11:28;;;;;;;6.47;2.70;;;;;;;1.16;59.97;94540.38;5023183;28;20022;-79
2024/02/03 06:13:54;;;;;;;9.13;3.13;;;;;;;1.14;60.21;94530.13;5023295;28;20013;-78
2024/02/03 06:16:19;;;;;;;5.60;3.20;;;;;;;1.24;59.55;94539.97;5022909;28;20029;-79
2024/02/03 06:18:44;;;;;;;8.55;2.92;;;;;;;1.30;59.30;94531.16;5023068;28;20048;-79
2024/02/03 06:21:14;;;;;;;4.45;2.42;;;;;;;1.34;59.37;94536.72;5022476;28;20025;-78
2024/02/03 06:23:39;;;;;;;8.93;2.65;;;;;;;1.35;59.49;94530.47;5023007;28;20030;-78
2024/02/03 06:26:05;;;;;;;8.57;2.42;;;;;;;1.39;59.32;94540.25;5022975;28;20028;-78
2024/02/03 06:28:30;;;;;;;7.55;3.10;;;;;;;1.45;59.06;94537.72;5022595;28;20084;-79
2024/02/03 06:30:56;;;;;;;5.72;2.15;;;;;;;1.47;58.93;94546.94;5022095;28;20157;-78
2024/02/03 06:33:21;;;;;;;8.82;2.72;;;;;;;1.45;59.11;94537.72;5021804;28;20307;-77
2024/02/03 06:35:46;;;;;;;6.53;2.53;;;;;;;1.39;58.83;94544.72;5022874;28;20017;-77
2024/02/03 06:38:12;;;;;;;6.57;2.13;;;;;;;1.39;58.29;94549.97;5021734;28;20025;-78
2024/02/03 06:40:38;;;;;;;6.00;2.63;;;;;;;1.51;58.15;94552.53;5021465;28;20014;-78
2024/02/03 06:43:04;;;;;;;11.68;2.60;;;;;;;1.52;57.92;94567.22;5021920;28;20036;-78
2024/02/03 06:45:29;;;;;;;10.63;3.30;;;;;;;1.56;57.86;94560.47;5022984;28;20036;-78
2024/02/03 06:47:55;;;;;;;10.13;3.22;;;;;;;1.65;57.46;94563.47;5022635;28;20029;-78
2024/02/03 06:50:21;;;;;;;9.93;3.00;;;;;;;1.79;57.24;94570.81;5022927;28;20048;-78
2024/02/03 06:52:46;;;;;;;11.18;2.92;;;;;;;1.86;57.01;94564.59;5022566;28;20048;-78
2024/02/03 06:55:11;;;;;;;5.15;2.63;;;;;;;2.04;56.48;94561.69;5022996;28;20044;-78
2024/02/03 06:57:37;;;;;;;9.20;3.40;;;;;;;2.11;56.49;94551.78;5022785;28;20232;-78
2024/02/03 07:00:03;;;;;;;8.93;3.20;;;;;;;2.28;56.17;94561.47;5022509;28;20033;-78
2024/02/03 07:02:29;;;;;;;7.78;2.95;;;;;;;2.40;55.88;94565.59;5022535;28;20089;-78
2024/02/03 07:04:54;;;;;;;9.18;3.10;;;;;;;2.57;54.98;94568.16;5022665;28;20033;-79
2024/02/03 07:07:20;;;;;;;9.48;3.72;;;;;;;2.75;55.38;94582.84;5022711;28;20021;-79
2024/02/03 07:09:45;;;;;;;8.77;3.33;;;;;;;2.89;54.47;94569.28;5021378;28;20017;-79
2024/02/03 07:12:11;;;;;;;11.77;3.75;;;;;;;2.94;53.54;94570.16;5022999;28;20030;-79
2024/02/03 07:14:36;;;;;;;8.55;3.35;;;;;;;3.06;52.83;94574.50;5022704;28;20208;-80
2024/02/03 07:17:02;;;;;;;5.03;2.60;;;;;;;3.11;52.70;94577.94;5022735;28;20038;-80
2024/02/03 07:19:28;;;;;;;8.40;2.70;;;;;;;3.16;52.72;94579.88;5022456;28;20029;-79
2024/02/03 07:21:53;;;;;;;8.05;2.15;;;;;;;3.14;52.00;94569.56;5022479;28;20197;-78
2024/02/03 07:24:19;;;;;;;11.18;2.20;;;;;;;3.19;52.58;94580.13;5022751;28;20040;-79
2024/02/03 07:26:44;;;;;;;9.40;2.22;;;;;;;3.20;52.71;94578.31;5022730;28;20060;-79
2024/02/03 07:29:09;;;;;;;7.15;2.05;;;;;;;3.17;51.62;94574.31;5022532;28;20245;-78
2024/02/03 07:31:35;;;;;;;9.25;2.33;;;;;;;3.17;51.80;94584.88;5022452;28;20030;-78
2024/02/03 07:34:01;;;;;;;3.92;1.95;;;;;;;3.11;51.95;94564.78;5025813;28;20030;-77
2024/02/03 07:36:27;;;;;;;8.00;2.60;;;;;;;3.10;52.41;94570.31;5026299;28;20030;-79
2024/02/03 07:38:53;;;;;;;12.02;2.45;;;;;;;3.18;52.00;94543.53;5025956;28;20021;-80
2024/02/03 07:41:18;;;;;;;10.65;3.35;;;;;;;3.25;51.20;94553.84;5026167;28;20094;-77
2024/02/03 07:43:44;;;;;;;8.95;2.45;;;;;;;3.44;51.13;94546.38;5025986;28;20232;-79
2024/02/03 07:46:11;;;;;;;9.68;2.05;;;;;;;3.60;50.19;94562.06;5026153;28;20022;-79
2024/02/03 07:48:37;;;;;;;11.25;2.17;;;;;;;3.65;49.17;94569.22;5025758;28;20054;-80
2024/02/03 07:51:03;;;;;;;2.65;1.05;;;;;;;3.70;48.02;94542.88;5026502;28;20101;-80
2024/02/03 07:53:28;;;;;;;10.15;1.20;;;;;;;3.88;48.41;94554.09;5024685;28;20046;-78
2024/02/03 07:55:53;;;;;;;6.30;1.50;;;;;;;4.02;48.48;94566.56;5025678;28;20269;-77
2024/02/03 07:58:19;;;;;;;6.75;1.40;;;;;;;4.01;49.71;94549.19;5025589;28;20350;-76
2024/02/03 08:00:45;;;;;;;5.72;1.60;;;;;;;3.95;50.18;94560.75;5025814;28;20045;-76
2024/02/03 08:03:11;;;;;;;2.55;0.93;;;;;;;4.10;50.87;94557.41;5025954;28;20025;-79
2024/02/03 08:05:37;;;;;;;4.80;1.67;;;;;;;4.27;50.72;94553.78;5025681;28;20336;-79
2024/02/03 08:08:03;;;;;;;8.57;1.20;;;;;;;4.27;48.44;94574.91;5026043;28;20030;-79
2024/02/03 08:10:29;;;;;;;8.95;1.17;;;;;;;4.24;48.39;94554.31;5025648;28;20022;-79
2024/02/03 08:12:54;;;;;;;6.70;2.45;;;;;;;4.26;49.70;94573.34;5025966;28;20022;-78
2024/02/03 08:15:20;;;;;;;4.95;1.52;;;;;;;4.13;48.76;94588.56;5025684;28;20427;-74
2024/02/03 08:17:46;;;;;;;4.28;1.80;;;;;;;4.11;48.94;94572.19;5025573;28;20097;-75
2024/02/03 08:20:12;;;;;;;5.97;1.83;;;;;;;4.17;48.67;94578.28;5025412;28;20080;-75
2024/02/03 08:22:38;;;;;;;5.25;2.17;;;;;;;3.98;49.02;94557.59;5025455;28;20045;-75
2024/02/03 08:25:05;;;;;;;8.70;2.97;;;;;;;3.93;49.59;94572.56;5025474;28;20030;-74
2024/02/03 08:27:30;;;;;;;7.75;2.80;;;;;;;3.86;49.76;94562.25;5025291;28;20037;-81
2024/02/03 08:29:56;;;;;;;5.88;1.63;;;;;;;3.85;49.68;94551.94;5025197;28;20022;-81
2024/02/03 08:32:22;;;;;;;7.25;1.65;;;;;;;3.85;49.52;94554.59;5025214;28;20109;-80
2024/02/03 08:34:47;;;;;;;3.90;1.33;;;;;;;3.84;49.69;94545.09;5025806;28;20347;-81
2024/02/03 08:37:13;;;;;;;4.95;1.67;;;;;;;3.90;49.26;94554.63;5025418;28;20030;-80
2024/02/03 08:39:38;;;;;;;7.70;2.40;;;;;;;3.90;49.76;94546.72;5025508;28;20033;-82
2024/02/03 08:42:04;;;;;;;5.22;1.55;;;;;;;3.91;50.06;94545.66;5024913;28;20021;-82
2024/02/03 08:44:29;;;;;;;7.70;2.00;;;;;;;3.95;49.74;94552.03;5023937;28;20037;-81
2024/02/03 08:46:54;;;;;;;4.20;1.42;;;;;;;3.95;50.41;94557.31;5024800;28;20102;-80
2024/02/03 08:49:20;;;;;;;3.65;1.40;;;;;;;3.99;50.37;94545.22;5023526;28;20025;-81
2024/02/03 08:51:45;;;;;;;3.38;1.23;;;;;;;3.99;50.42;94534.66;5024581;28;20046;-80
2024/02/03 08:54:11;;;;;;;3.50;1.13;;;;;;;4.12;50.24;94531.56;5024766;28;20316;-81
2024/02/03 08:56:36;;;;;;;7.10;2.00;;;;;;;4.21;50.12;94532.66;5024717;28;20040;-82
2024/02/03 08:59:02;;;;;;;9.27;2.13;;;;;;;4.21;51.23;94534.50;5023398;28;20324;-82
2024/02/03 09:01:27;;;;;;;4.72;1.35;;;;;;;4.27;50.59;94548.50;5024424;28;20022;-82
2024/02/03 09:03:52;;;;;;;6.80;2.05;;;;;;;4.27;51.07;94569.63;5024456;28;20037;-81
2024/02/03 09:06:18;;;;;;;5.85;2.17;;;;;;;4.31;50.84;94549.59;5024403;28;20030;-82
2024/02/03 09:08:44;;;;;;;7.13;1.85;;;;;;;4.40;50.78;94553.34;5024642;28;20025;-83
2024/02/03 09:11:09;;;;;;;3.42;1.70;;;;;;;4.43;51.52;94571.28;5024505;28;20025;-83
2024/02/03 09:13:34;;;;;;;4.95;1.42;;;;;;;4.40;51.84;94555.97;5024556;28;20338;-82
2024/02/03 09:16:00;;;;;;;2.95;1.40;;;;;;;4.39;51.83;94578.13;5024292;28;20251;-82
2024/02/03 09:18:25;;;;;;;4.10;1.13;;;;;;;4.28;52.06;94558.03;5024167;28;20025;-83
2024/02/03 09:20:51;;;;;;;4.13;1.35;;;;;;;4.27;52.18;94567.78;5023944;28;20030;-83
2024/02/03 09:23:16;;;;;;;2.55;1.20;;;;;;;4.39;51.66;94552.53;5024040;28;20032;-83
2024/02/03 09:25:45;;;;;;;3.17;1.33;;;;;;;4.46;50.98;94560.25;5024657;28;20309;-82
2024/02/03 09:28:11;;;;;;;4.18;1.50;;;;;;;4.49;51.26;94557.06;5025259;28;20326;-83
2024/02/03 09:30:37;;;;;;;7.95;1.60;;;;;;;4.45;50.98;94548.06;5023536;28;20057;-83
2024/02/03 09:33:04;;;;;;;7.57;1.60;;;;;;;4.58;51.03;94533.59;5025211;28;20026;-82
2024/02/03 09:35:38;;;;;;;7.32;2.63;;;;;;;4.65;49.53;94550.00;5024950;28;20233;-83
2024/02/03 09:38:07;;;;;;;5.75;1.67;;;;;;;4.66;50.16;94540.22;5024292;28;20064;-84
2024/02/03 09:40:38;;;;;;;6.85;2.00;;;;;;;4.72;49.83;94537.38;5021651;28;20124;-77
2024/02/03 09:43:04;;;;;;;11.55;2.35;;;;;;;4.82;50.41;94531.31;5023665;28;20053;-76
2024/02/03 09:45:31;;;;;;;7.25;2.05;;;;;;;4.99;50.27;94531.88;5023677;28;20026;-78
2024/02/03 09:47:57;;;;;;;5.82;2.00;;;;;;;5.10;50.29;94526.63;5023508;28;20036;-78
2024/02/03 09:50:23;;;;;;;3.85;1.65;;;;;;;5.21;50.56;94522.91;5023904;28;20255;-78
2024/02/03 09:52:49;;;;;;;9.95;1.70;;;;;;;5.28;50.69;94512.13;5023598;28;20108;-78
2024/02/03 09:55:16;;;;;;;5.93;1.20;;;;;;;5.37;49.86;94502.59;5023527;28;20040;-77
2024/02/03 09:57:45;;;;;;;14.15;2.05;;;;;;;5.48;50.02;94513.97;5023411;28;20041;-78
2024/02/03 10:00:11;;;;;;;5.95;1.85;;;;;;;5.45;49.09;94511.84;5023637;28;20119;-78
2024/02/03 10:02:37;;;;;;;5.97;1.92;;;;;;;5.49;49.26;94503.13;5023707;28;20029;-78
2024/02/03 10:05:03;;;;;;;4.50;1.60;;;;;;;5.61;50.13;94497.56;5023477;28;20100;-78
2024/02/03 10:07:28;;;;;;;6.70;1.58;;;;;;;5.72;49.51;94509.72;5023639;28;20022;-78
2024/02/03 10:10:08;;;;;;;5.40;1.80;;;;;;;5.73;49.66;94506.00;5023345;28;20018;-78
2024/02/03 10:12:34;;;;;;;5.68;1.80;;;;;;;5.81;49.30;94505.47;5022115;28;20225;-78
2024/02/03 10:15:08;;;;;;;3.72;1.63;;;;;;;5.90;49.77;94499.66;5023292;28;20028;-78
2024/02/03 10:17:34;;;;;;;5.53;0.98;;;;;;;5.94;50.54;94500.69;5023475;28;20235;-88
2024/02/03 10:19:59;;;;;;;3.92;1.33;;;;;;;6.02;50.47;94514.22;5023216;28;20049;-76
2024/02/03 10:22:26;;;;;;;4.35;1.67;;;;;;;6.07;49.95;94505.47;5023026;28;20034;-80
2024/02/03 10:24:52;;;;;;;3.90;1.38;;;;;;;6.05;49.98;94490.94;5023297;28;20028;-80
2024/02/03 10:27:23;;;;;;;3.78;1.27;;;;;;;6.07;50.04;94488.81;5022942;28;20034;-81
2024/02/03 10:29:55;;;;;;;4.45;1.38;;;;;;;5.89;50.46;94477.69;5023206;28;20022;-84
2024/02/03 10:32:22;;;;;;;20.15;2.83;;;;;;;5.90;50.46;94491.72;5023358;28;20029;-82
2024/02/03 10:34:49;;;;;;;4.72;1.80;;;;;;;5.91;49.99;94480.06;5023136;28;20037;-81
2024/02/03 10:37:15;;;;;;;3.08;1.15;;;;;;;5.88;50.04;94470.00;5023247;28;20052;-82
2024/02/03 10:39:42;;;;;;;3.42;1.63;;;;;;;5.90;49.80;94475.81;5023106;28;20033;-81
2024/02/03 10:42:14;;;;;;;6.45;1.73;;;;;;;5.89;49.24;94476.91;5023357;28;20080;-81
2024/02/03 10:44:40;;;;;;;9.90;2.03;;;;;;;5.78;50.13;94476.94;5023003;28;20034;-78
2024/02/03 10:47:06;;;;;;;6.57;1.38;;;;;;;5.73;51.01;94458.41;5022613;28;20049;-84
2024/02/03 10:49:32;;;;;;;6.95;1.25;;;;;;;5.83;50.85;94484.06;5022960;28;20018;-81
2024/02/03 10:52:06;;;;;;;5.25;1.17;;;;;;;5.92;50.37;94465.78;5022771;28;20248;-79
2024/02/03 10:54:33;;;;;;;6.10;1.67;;;;;;;5.89;50.44;94461.03;5022891;28;20275;-80
2024/02/03 10:57:01;;;;;;;2.88;1.42;;;;;;;5.87;51.08;94448.06;5022743;28;20021;-74
2024/02/03 10:59:26;;;;;;;2.78;1.63;;;;;;;5.90;50.96;94444.88;5022835;28;20038;-76
2024/02/03 11:01:51;;;;;;;6.25;1.48;;;;;;;5.97;50.83;94428.75;5022693;28;20037;-75
2024/02/03 11:04:17;;;;;;;4.50;1.30;;;;;;;6.07;50.88;94436.66;5022651;28;20375;-75
2024/02/03 11:06:49;;;;;;;4.50;1.65;;;;;;;6.15;50.99;94424.72;5022468;28;20033;-75
2024/02/03 11:09:20;;;;;;;5.85;1.42;;;;;;;6.23;50.94;94427.59;5025901;28;20078;-76
2024/02/03 11:11:54;;;;;;;3.67;1.15;;;;;;;6.43;50.19;94432.00;5025653;28;20124;-72
2024/02/03 11:14:21;;;;;;;6.70;1.60;;;;;;;6.43;49.79;94425.91;5025678;28;20013;-77
2024/02/03 11:16:54;;;;;;;3.88;1.83;;;;;;;6.37;50.04;94440.22;5025239;28;20347;-81
2024/02/03 11:19:26;;;;;;;9.18;1.33;;;;;;;6.32;50.46;94429.69;5025578;28;20026;-81
2024/02/03 11:21:55;;;;;;;11.43;2.17;;;;;;;6.36;50.30;94414.84;5025215;28;20045;-81
2024/02/03 11:24:20;;;;;;;3.42;1.40;;;;;;;6.35;50.97;94422.00;5026278;28;20029;-81
2024/02/03 11:26:57;;;;;;;6.80;1.77;;;;;;;6.49;50.60;94406.28;5026037;28;20032;-81
2024/02/03 11:29:23;;;;;;;5.00;1.90;;;;;;;6.43;51.54;94415.31;5025315;28;20042;-81
2024/02/03 11:32:06;;;;;;;9.00;2.00;;;;;;;6.58;51.77;94409.16;5023969;28;20049;-81
2024/02/03 11:34:34;;;;;;;6.32;1.25;;;;;;;6.70;52.62;94400.88;5025222;28;20021;-81
2024/02/03 11:36:59;;;;;;;3.80;1.23;;;;;;;6.73;52.69;94397.66;5025349;28;20305;-81